Time;durP1;ratioP1;P1;durP2;ratioP2;P2;SDS_P1;SDS_P2;PMS_P1;PMS_P2;Temp;Humidity;BMP_temperature;BMP_pressure;BME280_temperature;BME280_humidity;BME280_pressure;Samples;Min_cycle;Max_cycle;Signal;HPM_P1;HPM_P2
2023/01/19 00:01:38;;;;;;;11.55;5.80;;;3.00;99.90;;;;;;5109313;27;20042;-91
2023/01/19 00:04:05;;;;;;;9.63;5.18;;;3.00;99.90;;;;;;5117826;27;20316;-91
2023/01/19 00:06:31;;;;;;;9.10;5.00;;;3.00;99.90;;;;;;5130913;27;20043;-90
2023/01/19 00:08:57;;;;;;;8.52;4.40;;;3.00;99.90;;;;;;5098690;27;20035;-91
2023/01/19 00:11:22;;;;;;;7.93;3.60;;;3.10;99.90;;;;;;5123548;27;20093;-90
2023/01/19 00:13:49;;;;;;;6.57;3.05;;;3.10;99.90;;;;;;5117503;27;20161;-91
2023/01/19 00:16:17;;;;;;;7.07;3.08;;;3.10;99.90;;;;;;5123496;27;20039;-90
2023/01/19 00:18:44;;;;;;;6.05;2.90;;;3.10;99.90;;;;;;5121076;27;20059;-91
2023/01/19 00:21:10;;;;;;;7.97;2.90;;;3.00;99.90;;;;;;5119826;27;20075;-90
2023/01/19 00:23:36;;;;;;;5.80;2.50;;;3.10;99.90;;;;;;5135058;27;20123;-91
2023/01/19 00:26:01;;;;;;;4.30;2.08;;;3.00;99.90;;;;;;5121445;27;20103;-90
2023/01/19 00:28:27;;;;;;;5.60;2.67;;;3.00;99.90;;;;;;5121262;27;20113;-91
2023/01/19 00:30:52;;;;;;;7.25;2.60;;;2.90;99.90;;;;;;5124200;27;20555;-92
2023/01/19 00:33:18;;;;;;;4.53;1.98;;;2.90;99.90;;;;;;5114740;27;20540;-91
2023/01/19 00:35:44;;;;;;;5.25;2.38;;;2.90;99.90;;;;;;5095683;28;20035;-92
2023/01/19 00:38:10;;;;;;;5.25;2.50;;;2.90;99.90;;;;;;5131161;27;20454;-91
2023/01/19 00:40:36;;;;;;;5.35;2.65;;;2.80;99.90;;;;;;5112756;27;20042;-90
2023/01/19 00:43:03;;;;;;;5.22;2.10;;;2.90;99.90;;;;;;5100287;28;20391;-91
2023/01/19 00:45:29;;;;;;;4.05;2.13;;;2.90;99.90;;;;;;5094895;28;20032;-89
2023/01/19 00:47:57;;;;;;;6.43;2.55;;;2.80;99.90;;;;;;5113284;27;20035;-90
2023/01/19 00:50:26;;;;;;;5.05;2.30;;;2.70;99.90;;;;;;5099681;27;20035;-91
2023/01/19 00:52:53;;;;;;;6.03;2.40;;;2.70;99.90;;;;;;5106072;28;20404;-88
2023/01/19 00:55:19;;;;;;;4.55;2.38;;;2.60;99.90;;;;;;5093848;27;20168;-92
2023/01/19 00:57:45;;;;;;;3.05;1.50;;;2.60;99.90;;;;;;5112421;28;20118;-90
2023/01/19 01:00:15;;;;;;;4.18;2.00;;;2.60;99.90;;;;;;5126531;27;20035;-91
2023/01/19 01:02:42;;;;;;;4.18;2.20;;;2.60;99.90;;;;;;5125728;27;20031;-90
2023/01/19 01:05:09;;;;;;;5.60;2.08;;;2.60;99.90;;;;;;5096016;27;20039;-90
2023/01/19 01:07:43;;;;;;;6.43;2.47;;;2.60;99.90;;;;;;5128254;27;20031;-91
2023/01/19 01:10:11;;;;;;;4.45;1.90;;;2.60;99.90;;;;;;5113764;27;20047;-91
2023/01/19 01:12:37;;;;;;;4.60;2.10;;;2.50;99.90;;;;;;5125069;27;20032;-92
2023/01/19 01:15:05;;;;;;;5.03;2.00;;;2.50;99.90;;;;;;5094987;28;20105;-90
2023/01/19 01:17:30;;;;;;;5.60;2.22;;;2.50;99.90;;;;;;5128087;27;20535;-90
2023/01/19 01:19:56;;;;;;;5.20;2.50;;;2.50;99.90;;;;;;5094744;28;20040;-91
2023/01/19 01:22:21;;;;;;;7.95;3.75;;;2.40;99.90;;;;;;5119061;27;20035;-90
2023/01/19 01:24:47;;;;;;;8.60;4.40;;;2.50;99.90;;;;;;5133192;27;20127;-90
2023/01/19 01:27:12;;;;;;;7.53;4.00;;;2.40;99.90;;;;;;5112164;27;20060;-91
2023/01/19 01:29:40;;;;;;;8.23;4.45;;;2.50;99.90;;;;;;5105059;27;20043;-91
2023/01/19 01:32:06;;;;;;;8.00;4.18;;;2.40;99.90;;;;;;5106805;28;20035;-91
2023/01/19 01:34:32;;;;;;;8.50;4.18;;;2.40;99.90;;;;;;5123086;27;20485;-90
2023/01/19 01:36:58;;;;;;;9.20;5.45;;;2.40;99.90;;;;;;5105612;28;20040;-91
2023/01/19 01:39:23;;;;;;;9.00;5.03;;;2.40;99.90;;;;;;5102860;27;20492;-91
2023/01/19 01:41:49;;;;;;;8.55;5.20;;;2.40;99.90;;;;;;5107184;28;20035;-91
2023/01/19 01:44:50;;;;;;;10.88;6.10;;;2.40;99.90;;;;;;5115689;28;20108;-90
2023/01/19 01:47:41;;;;;;;12.48;7.15;;;2.40;99.90;;;;;;5122909;28;20414;-92
2023/01/19 01:50:16;;;;;;;10.75;5.57;;;2.40;99.90;;;;;;5122697;28;20090;-89
2023/01/19 01:52:57;;;;;;;11.55;6.85;;;2.40;99.90;;;;;;5134507;28;20027;-91
2023/01/19 01:55:25;;;;;;;10.73;5.93;;;2.40;99.90;;;;;;5118265;28;20115;-92
2023/01/19 01:57:56;;;;;;;10.35;5.18;;;2.40;99.90;;;;;;5103518;28;20239;-91
2023/01/19 02:00:23;;;;;;;10.65;6.43;;;2.40;99.90;;;;;;5127962;28;20050;-90
2023/01/19 02:02:49;;;;;;;11.57;6.88;;;2.50;99.90;;;;;;5129002;28;20039;-88
2023/01/19 02:05:28;;;;;;;12.18;7.72;;;2.40;99.90;;;;;;5114439;28;20042;-90
2023/01/19 02:13:48;;;;;;;13.70;7.75;;;2.50;99.90;;;;;;5131277;28;20047;-89
2023/01/19 02:16:15;;;;;;;12.95;8.13;;;2.50;99.90;;;;;;5098850;28;20087;-89
2023/01/19 02:18:42;;;;;;;13.90;8.80;;;2.50;99.90;;;;;;5132985;28;20041;-89
2023/01/19 02:21:33;;;;;;;15.43;9.55;;;2.50;99.90;;;;;;5106353;28;20967;-89
2023/01/19 02:24:01;;;;;;;14.55;9.75;;;2.50;99.90;;;;;;5121305;28;20051;-89
2023/01/19 02:26:39;;;;;;;13.95;8.70;;;2.50;99.90;;;;;;5133791;28;20031;-89
2023/01/19 02:29:11;;;;;;;16.20;10.40;;;2.50;99.90;;;;;;5113702;28;20089;-90
2023/01/19 02:31:38;;;;;;;17.23;10.73;;;2.50;99.90;;;;;;5103576;28;20070;-90
2023/01/19 02:34:06;;;;;;;16.67;11.43;;;2.50;99.90;;;;;;5097733;28;20040;-91
2023/01/19 02:36:41;;;;;;;19.35;10.75;;;2.50;99.90;;;;;;5125161;28;20032;-89
2023/01/19 02:39:09;;;;;;;15.48;8.68;;;2.50;99.90;;;;;;5132491;28;20078;-91
2023/01/19 02:41:43;;;;;;;15.80;10.77;;;2.50;99.90;;;;;;5104042;28;20044;-90
2023/01/19 02:44:10;;;;;;;11.60;7.60;;;2.50;99.90;;;;;;5095917;28;20051;-87
2023/01/19 02:46:37;;;;;;;14.20;8.35;;;2.60;99.90;;;;;;5129055;28;20035;-90
2023/01/19 02:49:03;;;;;;;15.82;10.48;;;2.60;99.90;;;;;;5114012;27;20057;-90
2023/01/19 02:51:28;;;;;;;14.27;8.73;;;2.60;99.90;;;;;;5134178;27;20109;-91
2023/01/19 02:54:03;;;;;;;13.30;8.32;;;2.60;99.90;;;;;;5106824;28;20096;-90
2023/01/19 02:56:44;;;;;;;16.58;10.45;;;2.60;99.90;;;;;;5103044;27;20441;-91
2023/01/19 02:59:15;;;;;;;11.80;6.75;;;2.60;99.90;;;;;;5129856;27;20039;-90
2023/01/19 03:02:29;;;;;;;14.27;8.02;;;2.70;99.90;;;;;;5111404;27;20082;-89
2023/01/19 03:05:13;;;;;;;13.18;8.48;;;2.70;99.90;;;;;;5133369;27;20063;-90
2023/01/19 03:07:51;;;;;;;12.60;8.20;;;2.70;99.90;;;;;;5118279;27;20476;-88
2023/01/19 03:10:25;;;;;;;14.48;9.32;;;2.70;99.90;;;;;;5115364;28;20047;-91
2023/01/19 03:13:11;;;;;;;14.27;9.00;;;2.70;99.90;;;;;;5115252;28;20046;-90
2023/01/19 03:15:51;;;;;;;14.18;7.45;;;2.70;99.90;;;;;;5100367;28;20109;-89
2023/01/19 03:18:21;;;;;;;14.32;9.60;;;2.70;99.90;;;;;;5133709;27;20038;-89
2023/01/19 03:20:49;;;;;;;15.68;10.68;;;2.60;99.90;;;;;;5114977;27;20035;-91
2023/01/19 03:23:17;;;;;;;14.48;8.88;;;2.70;99.90;;;;;;5118272;27;20058;-90
2023/01/19 03:25:46;;;;;;;15.75;10.38;;;2.60;99.90;;;;;;5134178;27;20052;-90
2023/01/19 03:28:13;;;;;;;12.68;8.20;;;2.60;99.90;;;;;;5107517;28;20080;-88
2023/01/19 03:30:45;;;;;;;13.57;8.98;;;2.60;99.90;;;;;;5096815;28;20040;-89
2023/01/19 03:33:16;;;;;;;13.15;8.48;;;2.60;99.90;;;;;;5129121;27;20460;-89
2023/01/19 03:35:47;;;;;;;13.73;8.50;;;2.50;99.90;;;;;;5106964;27;20032;-90
2023/01/19 03:38:23;;;;;;;11.57;7.30;;;2.50;99.90;;;;;;5103723;27;20050;-89
2023/01/19 03:40:57;;;;;;;13.13;7.45;;;2.40;99.90;;;;;;5133268;27;20134;-88
2023/01/19 03:43:24;;;;;;;11.52;6.78;;;2.40;99.90;;;;;;5116019;27;20104;-88
2023/01/19 03:45:51;;;;;;;12.35;8.25;;;2.40;99.90;;;;;;5131731;27;20039;-89
2023/01/19 03:48:18;;;;;;;11.45;8.13;;;2.30;99.90;;;;;;5124995;27;20379;-89
2023/01/19 03:50:44;;;;;;;12.35;8.00;;;2.30;99.90;;;;;;5130129;27;20035;-89
2023/01/19 03:53:12;;;;;;;11.95;6.88;;;2.30;99.90;;;;;;5096868;27;20063;-91
2023/01/19 03:55:41;;;;;;;11.13;7.10;;;2.30;99.90;;;;;;5114785;27;20076;-90
2023/01/19 03:58:06;;;;;;;10.20;6.05;;;2.30;99.90;;;;;;5135845;27;20104;-88
2023/01/19 04:00:33;;;;;;;10.27;5.60;;;2.40;99.90;;;;;;5130162;27;20110;-89
2023/01/19 04:02:59;;;;;;;10.43;4.90;;;2.40;99.90;;;;;;5124884;27;20039;-89
2023/01/19 04:05:24;;;;;;;9.85;5.88;;;2.40;99.90;;;;;;5111149;27;20038;-89
2023/01/19 04:07:51;;;;;;;9.82;5.25;;;2.40;99.90;;;;;;5132754;27;20039;-90
2023/01/19 04:10:17;;;;;;;9.20;5.00;;;2.40;99.90;;;;;;5133436;27;20078;-89
2023/01/19 04:12:44;;;;;;;9.27;5.68;;;2.40;99.90;;;;;;5134068;27;20046;-90
2023/01/19 04:15:10;;;;;;;10.48;5.45;;;2.40;99.90;;;;;;5145976;27;20062;-89
2023/01/19 04:17:36;;;;;;;8.88;4.18;;;2.40;99.90;;;;;;5101855;27;20027;-89
2023/01/19 04:20:02;;;;;;;8.80;4.57;;;2.40;99.90;;;;;;5134389;27;20043;-90
2023/01/19 04:22:29;;;;;;;9.32;4.68;;;2.40;99.90;;;;;;5134310;27;20050;-90
2023/01/19 04:24:54;;;;;;;8.70;4.05;;;2.40;99.90;;;;;;5120773;27;20074;-90
2023/01/19 04:27:20;;;;;;;8.55;4.07;;;2.30;99.90;;;;;;5130048;27;20601;-90
2023/01/19 04:29:45;;;;;;;8.73;4.60;;;2.30;99.90;;;;;;5115715;27;20484;-90
2023/01/19 04:32:13;;;;;;;9.65;4.88;;;2.30;99.90;;;;;;5097192;27;20032;-90
2023/01/19 04:34:38;;;;;;;11.73;5.55;;;2.30;99.90;;;;;;5099337;27;20042;-90
2023/01/19 04:37:04;;;;;;;10.05;5.32;;;2.30;99.90;;;;;;5114634;27;20039;-90
2023/01/19 04:39:30;;;;;;;11.65;4.65;;;2.30;99.90;;;;;;5105993;27;20687;-90
2023/01/19 04:41:56;;;;;;;9.73;5.15;;;2.30;99.90;;;;;;5123628;27;20046;-91
2023/01/19 04:44:22;;;;;;;8.63;4.30;;;2.30;99.90;;;;;;5106897;27;20035;-89
2023/01/19 04:46:48;;;;;;;8.98;4.40;;;2.30;99.90;;;;;;5122005;27;20460;-89
2023/01/19 04:49:14;;;;;;;7.25;3.30;;;2.30;99.90;;;;;;5121513;27;20039;-90
2023/01/19 04:51:40;;;;;;;10.18;3.63;;;2.30;99.90;;;;;;5151707;27;20067;-90
2023/01/19 04:54:07;;;;;;;5.90;2.83;;;2.40;99.90;;;;;;5125705;27;20031;-90
2023/01/19 04:56:33;;;;;;;8.00;3.63;;;2.40;99.90;;;;;;5132788;27;20035;-89
2023/01/19 04:58:59;;;;;;;8.05;3.15;;;2.50;99.90;;;;;;5116457;27;20102;-90
2023/01/19 05:01:25;;;;;;;8.32;2.95;;;2.50;99.90;;;;;;5117789;27;20046;-90
2023/01/19 05:03:51;;;;;;;6.05;2.58;;;2.60;99.90;;;;;;5129494;27;20039;-90
2023/01/19 05:06:16;;;;;;;7.25;2.75;;;2.60;99.90;;;;;;5134247;27;20035;-90
2023/01/19 05:08:42;;;;;;;7.40;3.22;;;2.70;99.90;;;;;;5114626;27;20043;-89
2023/01/19 05:11:07;;;;;;;5.78;2.50;;;2.70;99.90;;;;;;5104546;28;20078;-90
2023/01/19 05:13:34;;;;;;;8.35;3.28;;;2.70;99.90;;;;;;5125953;27;20031;-90
2023/01/19 05:16:00;;;;;;;6.85;2.92;;;2.80;99.90;;;;;;5095438;27;20035;-90
2023/01/19 05:18:25;;;;;;;8.18;3.40;;;2.80;99.90;;;;;;5113827;27;20031;-90
2023/01/19 05:20:51;;;;;;;8.18;3.63;;;2.80;99.90;;;;;;5114872;27;20043;-89
2023/01/19 05:23:19;;;;;;;8.95;4.18;;;2.80;99.90;;;;;;5114561;27;20411;-91
2023/01/19 05:25:45;;;;;;;9.50;3.30;;;2.80;99.90;;;;;;5133187;27;20046;-90
2023/01/19 05:28:11;;;;;;;9.07;3.92;;;2.80;99.90;;;;;;5103690;28;20388;-89
2023/01/19 05:30:37;;;;;;;12.10;3.80;;;2.90;99.90;;;;;;5098194;28;20062;-91
2023/01/19 05:33:02;;;;;;;7.80;2.47;;;2.90;99.90;;;;;;5128079;27;20073;-91
2023/01/19 05:35:28;;;;;;;7.75;2.30;;;3.00;99.90;;;;;;5125675;27;20079;-90
2023/01/19 05:37:54;;;;;;;7.55;2.28;;;3.10;99.90;;;;;;5120107;27;20039;-89
2023/01/19 05:40:20;;;;;;;8.07;2.15;;;3.20;99.90;;;;;;5120155;27;20458;-90
2023/01/19 05:42:46;;;;;;;7.20;2.30;;;3.20;99.90;;;;;;5093434;28;20051;-90
2023/01/19 05:45:11;;;;;;;4.85;1.70;;;3.40;99.90;;;;;;5109188;27;20406;-89
2023/01/19 05:47:38;;;;;;;7.95;2.30;;;3.30;99.90;;;;;;5113100;27;20038;-90
2023/01/19 05:50:04;;;;;;;6.57;2.15;;;3.30;99.90;;;;;;5110288;28;20043;-89
2023/01/19 05:52:30;;;;;;;7.05;2.95;;;3.30;99.90;;;;;;5125244;27;20229;-89
2023/01/19 05:54:56;;;;;;;7.80;1.85;;;3.30;99.90;;;;;;5120754;27;20027;-89
2023/01/19 05:57:22;;;;;;;6.38;1.90;;;3.40;99.90;;;;;;5132146;28;20032;-88
2023/01/19 05:59:47;;;;;;;5.05;1.60;;;3.40;99.90;;;;;;5115480;28;20124;-87
2023/01/19 06:02:13;;;;;;;6.43;1.50;;;3.50;99.90;;;;;;5093493;28;20490;-90
2023/01/19 06:04:39;;;;;;;5.63;1.58;;;3.50;99.90;;;;;;5122267;28;20471;-88
2023/01/19 06:07:05;;;;;;;4.63;1.10;;;3.50;99.90;;;;;;5131463;28;20043;-87
2023/01/19 06:09:32;;;;;;;4.68;1.10;;;3.50;99.90;;;;;;5136572;27;20131;-87
2023/01/19 06:11:58;;;;;;;7.15;1.85;;;3.50;99.90;;;;;;5152462;27;20409;-87
2023/01/19 06:14:24;;;;;;;4.30;1.15;;;3.40;99.90;;;;;;5135821;27;20035;-90
2023/01/19 06:16:50;;;;;;;5.90;1.10;;;3.50;99.90;;;;;;5096238;28;20130;-93
2023/01/19 06:19:15;;;;;;;7.18;1.10;;;3.50;99.90;;;;;;5131188;28;20500;-90
2023/01/19 06:21:41;;;;;;;7.45;1.48;;;3.50;99.90;;;;;;5102256;28;20028;-90
2023/01/19 06:24:08;;;;;;;3.92;1.10;;;3.50;99.90;;;;;;5125665;27;20057;-88
2023/01/19 06:26:34;;;;;;;2.13;0.60;;;3.50;99.90;;;;;;5134713;27;20039;-87
2023/01/19 06:28:59;;;;;;;3.35;0.75;;;3.50;99.90;;;;;;5127281;27;20038;-87
2023/01/19 06:31:25;;;;;;;5.55;1.00;;;3.40;99.90;;;;;;5117294;27;20035;-86
2023/01/19 06:33:51;;;;;;;6.18;1.00;;;3.40;99.90;;;;;;5102447;27;20042;-89
2023/01/19 06:36:16;;;;;;;3.90;1.00;;;3.40;99.90;;;;;;5125725;27;20070;-87
2023/01/19 06:38:42;;;;;;;5.60;1.13;;;3.40;99.90;;;;;;5119095;27;20524;-87
2023/01/19 06:41:07;;;;;;;4.05;0.82;;;3.40;99.90;;;;;;5120661;27;20095;-89
2023/01/19 06:43:33;;;;;;;4.32;1.10;;;3.40;99.90;;;;;;5109068;28;20089;-86
2023/01/19 06:46:02;;;;;;;5.03;1.10;;;3.40;99.90;;;;;;5125839;27;20091;-89
2023/01/19 06:48:27;;;;;;;8.00;1.25;;;3.40;99.90;;;;;;5141383;27;20039;-87
2023/01/19 06:50:53;;;;;;;5.57;0.93;;;3.30;99.90;;;;;;5127812;27;20052;-88
2023/01/19 06:53:21;;;;;;;3.63;0.82;;;3.30;99.90;;;;;;5147037;27;20050;-91
2023/01/19 06:55:46;;;;;;;4.68;0.98;;;3.30;99.90;;;;;;5143082;27;20050;-86
2023/01/19 06:58:12;;;;;;;7.25;0.90;;;3.30;99.90;;;;;;5103703;28;20043;-88
2023/01/19 07:00:38;;;;;;;3.10;0.77;;;3.30;99.90;;;;;;5096426;28;20043;-87
2023/01/19 07:03:08;;;;;;;8.20;1.20;;;3.40;99.90;;;;;;5113111;27;20083;-86
2023/01/19 07:05:35;;;;;;;6.55;1.30;;;3.40;99.90;;;;;;5114851;27;20498;-88
2023/01/19 07:08:01;;;;;;;6.65;0.95;;;3.40;99.90;;;;;;5111483;27;20039;-86
2023/01/19 07:10:26;;;;;;;7.90;1.17;;;3.50;99.90;;;;;;5113170;27;20503;-85
2023/01/19 07:12:55;;;;;;;4.72;1.35;;;3.40;99.90;;;;;;5105824;28;20039;-90
2023/01/19 07:15:21;;;;;;;4.05;0.93;;;3.50;99.90;;;;;;5130892;27;20318;-89
2023/01/19 07:17:47;;;;;;;8.48;1.77;;;3.60;99.90;;;;;;5114458;27;20051;-89
2023/01/19 07:20:13;;;;;;;3.25;0.65;;;3.70;99.90;;;;;;5116675;27;20031;-89
2023/01/19 07:22:40;;;;;;;3.17;0.70;;;3.80;99.90;;;;;;5103124;27;20096;-89
2023/01/19 07:25:06;;;;;;;5.68;0.93;;;3.80;99.90;;;;;;5126950;27;20119;-86
2023/01/19 07:27:32;;;;;;;9.80;1.52;;;3.80;99.90;;;;;;5141740;27;20062;-86
2023/01/19 07:29:59;;;;;;;8.07;1.55;;;3.80;99.90;;;;;;5106128;27;20544;-88
2023/01/19 07:32:26;;;;;;;9.57;1.25;;;3.80;99.90;;;;;;5117337;27;20094;-93
2023/01/19 07:34:51;;;;;;;10.35;1.85;;;3.80;99.90;;;;;;5113765;27;20031;-88
2023/01/19 07:37:17;;;;;;;9.20;1.05;;;3.80;99.90;;;;;;5125528;27;21165;-89
2023/01/19 07:39:43;;;;;;;8.30;1.02;;;3.70;99.90;;;;;;5114935;27;20031;-91
2023/01/19 07:42:08;;;;;;;9.52;1.33;;;3.70;99.90;;;;;;5104780;27;20042;-88
2023/01/19 07:44:34;;;;;;;9.32;1.70;;;3.70;99.90;;;;;;5111213;27;20039;-89
2023/01/19 07:47:00;;;;;;;11.75;1.77;;;3.70;99.90;;;;;;5093678;27;20043;-90
2023/01/19 07:49:25;;;;;;;10.95;1.85;;;3.70;99.90;;;;;;5113029;27;20027;-90
2023/01/19 07:51:51;;;;;;;10.10;1.83;;;3.70;99.90;;;;;;5115569;27;20047;-89
2023/01/19 07:54:16;;;;;;;9.10;1.33;;;3.60;99.90;;;;;;5133521;27;20039;-88
2023/01/19 07:56:42;;;;;;;7.43;1.40;;;3.60;99.90;;;;;;5116068;27;20043;-89
2023/01/19 07:59:09;;;;;;;9.90;1.20;;;3.60;99.90;;;;;;5107248;28;20050;-89
2023/01/19 08:01:35;;;;;;;6.82;1.25;;;3.60;99.90;;;;;;5102422;27;20383;-89
2023/01/19 08:04:01;;;;;;;11.15;1.40;;;3.60;99.90;;;;;;5133217;27;20043;-88
2023/01/19 08:06:32;;;;;;;6.60;1.30;;;3.60;99.90;;;;;;5115108;27;20039;-90
2023/01/19 08:08:58;;;;;;;8.95;2.00;;;3.60;99.90;;;;;;5130137;27;20050;-88
2023/01/19 08:11:24;;;;;;;9.07;1.40;;;3.60;99.90;;;;;;5113933;27;20400;-86
2023/01/19 08:13:49;;;;;;;12.15;1.88;;;3.60;99.90;;;;;;5097853;27;20100;-86
2023/01/19 08:16:15;;;;;;;10.15;1.70;;;3.50;99.90;;;;;;5093769;28;20445;-86
2023/01/19 08:18:41;;;;;;;12.20;1.95;;;3.40;99.90;;;;;;5094012;28;20472;-86
2023/01/19 08:21:07;;;;;;;8.98;2.15;;;3.40;99.90;;;;;;5094065;28;20066;-85
2023/01/19 08:23:32;;;;;;;10.88;2.05;;;3.40;99.90;;;;;;5075903;28;20105;-86
2023/01/19 08:25:58;;;;;;;11.70;2.08;;;3.40;99.90;;;;;;5093607;28;20450;-85
2023/01/19 08:28:24;;;;;;;10.90;2.28;;;3.40;99.90;;;;;;5099024;27;20065;-85
2023/01/19 08:30:53;;;;;;;11.43;1.75;;;3.40;99.90;;;;;;5114035;27;20039;-88
2023/01/19 08:33:20;;;;;;;8.05;2.30;;;3.50;99.90;;;;;;5131123;27;20039;-87
2023/01/19 08:35:51;;;;;;;7.47;1.92;;;3.40;99.90;;;;;;5129560;27;20114;-86
2023/01/19 08:38:17;;;;;;;9.35;2.25;;;3.40;99.90;;;;;;5143193;27;20043;-85
2023/01/19 08:40:43;;;;;;;8.65;1.33;;;3.40;99.90;;;;;;5108430;28;20040;-83
2023/01/19 08:43:12;;;;;;;8.05;1.50;;;3.40;99.90;;;;;;5102440;28;20187;-84
2023/01/19 08:45:44;;;;;;;9.90;1.77;;;3.50;99.90;;;;;;5093969;28;20361;-89
2023/01/19 08:48:09;;;;;;;7.55;1.52;;;3.50;99.90;;;;;;5112035;28;20039;-89
2023/01/19 08:50:35;;;;;;;7.80;1.25;;;3.50;99.90;;;;;;5117088;27;20028;-90
2023/01/19 08:53:03;;;;;;;11.40;2.65;;;3.60;99.90;;;;;;5079561;27;20051;-90
2023/01/19 08:55:29;;;;;;;8.52;1.88;;;3.60;99.90;;;;;;5114006;27;20039;-87
2023/01/19 08:57:58;;;;;;;5.80;1.48;;;3.70;99.90;;;;;;5113030;27;20042;-86
2023/01/19 09:00:24;;;;;;;10.63;1.92;;;3.80;99.90;;;;;;5131443;27;20421;-87
2023/01/19 09:02:50;;;;;;;7.28;1.38;;;3.90;99.90;;;;;;5097520;27;20095;-87
2023/01/19 09:05:16;;;;;;;10.73;1.85;;;3.90;99.90;;;;;;5132947;27;20039;-90
2023/01/19 09:07:46;;;;;;;9.57;1.85;;;4.00;99.90;;;;;;5121743;27;20560;-90
2023/01/19 09:10:13;;;;;;;14.23;1.92;;;3.90;99.90;;;;;;5109522;27;20518;-90
2023/01/19 09:12:39;;;;;;;10.05;1.98;;;3.90;99.90;;;;;;5133973;27;20052;-89
2023/01/19 09:15:05;;;;;;;9.20;1.88;;;3.90;99.90;;;;;;5132478;27;20066;-91
2023/01/19 09:17:31;;;;;;;9.63;1.55;;;3.90;99.90;;;;;;5115880;27;20039;-90
2023/01/19 09:19:57;;;;;;;13.10;2.20;;;3.90;99.90;;;;;;5145795;27;20045;-90
2023/01/19 09:22:23;;;;;;;9.88;1.65;;;3.90;99.90;;;;;;5131456;27;20027;-88
2023/01/19 09:24:48;;;;;;;12.32;2.83;;;3.80;99.90;;;;;;5134701;27;20055;-90
2023/01/19 09:27:14;;;;;;;7.68;2.10;;;3.80;99.90;;;;;;5138721;27;20035;-89
2023/01/19 09:29:40;;;;;;;10.60;2.00;;;3.80;99.90;;;;;;5143423;27;20027;-90
2023/01/19 09:32:05;;;;;;;9.77;2.45;;;3.80;99.90;;;;;;5115331;27;20024;-91
2023/01/19 09:34:31;;;;;;;10.02;2.63;;;3.80;99.90;;;;;;5108096;27;20050;-90
2023/01/19 09:36:57;;;;;;;7.93;1.55;;;3.70;99.90;;;;;;5132802;27;20039;-90
2023/01/19 09:39:22;;;;;;;7.53;1.38;;;3.70;99.90;;;;;;5125025;27;20084;-90
2023/01/19 09:41:56;;;;;;;10.93;1.77;;;3.60;99.90;;;;;;5114872;28;20092;-89
2023/01/19 09:44:30;;;;;;;10.18;2.25;;;3.70;99.90;;;;;;5127101;27;20035;-89
2023/01/19 09:46:56;;;;;;;11.43;1.42;;;3.60;99.90;;;;;;5131406;27;20047;-86
2023/01/19 09:49:38;;;;;;;9.43;1.58;;;3.70;99.90;;;;;;5113511;27;20114;-85
2023/01/19 09:52:04;;;;;;;9.07;1.50;;;3.80;99.90;;;;;;5112259;28;20377;-88
2023/01/19 09:54:40;;;;;;;10.43;1.83;;;3.80;99.90;;;;;;5106550;28;20036;-86
2023/01/19 09:57:13;;;;;;;8.43;1.80;;;3.90;99.90;;;;;;5112297;27;20085;-85
2023/01/19 09:59:42;;;;;;;7.20;1.48;;;4.00;99.90;;;;;;5108697;28;20060;-85
2023/01/19 10:02:32;;;;;;;9.55;1.25;;;4.10;99.90;;;;;;5110319;28;20067;-89
2023/01/19 10:05:18;;;;;;;10.65;1.85;;;4.10;99.90;;;;;;5129927;28;20074;-87
2023/01/19 10:08:18;;;;;;;7.40;1.48;;;4.20;99.90;;;;;;5123151;28;20099;-88
2023/01/19 10:10:52;;;;;;;8.68;1.60;;;4.20;99.90;;;;;;5110758;28;20384;-86
2023/01/19 10:13:39;;;;;;;7.70;1.50;;;4.30;99.90;;;;;;5109386;28;20044;-87
2023/01/19 10:16:13;;;;;;;9.02;1.60;;;4.40;99.90;;;;;;5110602;28;20039;-87
2023/01/19 10:18:46;;;;;;;8.90;1.17;;;4.50;99.90;;;;;;5092399;28;20071;-87
2023/01/19 10:21:23;;;;;;;8.48;1.70;;;4.60;99.90;;;;;;5125832;28;20044;-88
2023/01/19 10:23:54;;;;;;;6.65;1.10;;;4.60;99.90;;;;;;5118927;28;20089;-88
2023/01/19 10:26:33;;;;;;;10.75;1.77;;;4.60;99.90;;;;;;5113004;28;20479;-88
2023/01/19 10:29:19;;;;;;;7.63;1.05;;;4.70;99.90;;;;;;5095623;28;20126;-87
2023/01/19 10:31:46;;;;;;;6.55;1.23;;;4.80;99.90;;;;;;5095399;28;20091;-88
2023/01/19 10:34:18;;;;;;;8.45;1.52;;;4.90;99.90;;;;;;5112061;28;20426;-87
2023/01/19 10:36:49;;;;;;;9.15;1.40;;;5.00;99.90;;;;;;5095598;28;20035;-88
2023/01/19 10:39:17;;;;;;;7.22;1.20;;;5.10;99.90;;;;;;5111966;28;20439;-88
2023/01/19 10:41:49;;;;;;;5.53;1.40;;;5.10;99.90;;;;;;5113240;28;20039;-88
2023/01/19 10:44:27;;;;;;;8.23;1.38;;;5.10;99.90;;;;;;5131364;28;20047;-89
2023/01/19 10:46:58;;;;;;;5.07;1.08;;;5.20;99.90;;;;;;5130600;28;20031;-88
2023/01/19 10:49:37;;;;;;;6.68;1.30;;;5.30;99.90;;;;;;5130539;28;20046;-87
2023/01/19 10:52:18;;;;;;;9.30;1.80;;;5.30;99.90;;;;;;5129671;28;20407;-87
2023/01/19 10:54:44;;;;;;;13.90;1.95;;;5.30;99.90;;;;;;5084563;28;20387;-87
2023/01/19 10:57:19;;;;;;;7.57;1.48;;;5.30;99.90;;;;;;5129808;28;20046;-88
2023/01/19 10:59:52;;;;;;;10.00;1.98;;;5.40;99.90;;;;;;5110523;28;20032;-86
2023/01/19 11:02:29;;;;;;;10.98;2.72;;;5.40;99.90;;;;;;5092405;28;20046;-88
2023/01/19 11:04:57;;;;;;;9.45;1.40;;;5.50;99.90;;;;;;5110519;28;20065;-86
2023/01/19 11:07:29;;;;;;;7.30;1.30;;;5.50;99.90;;;;;;5075102;28;20039;-84
2023/01/19 11:10:16;;;;;;;11.70;1.77;;;5.50;99.90;;;;;;5093943;28;20048;-86
2023/01/19 11:12:46;;;;;;;8.13;1.23;;;5.60;99.90;;;;;;5100171;27;20127;-86
2023/01/19 11:15:22;;;;;;;7.43;1.58;;;5.60;99.90;;;;;;5134077;27;20475;-85
2023/01/19 11:17:49;;;;;;;5.50;1.17;;;5.60;99.90;;;;;;5134060;27;20096;-86
2023/01/19 11:20:22;;;;;;;9.65;2.60;;;5.70;99.90;;;;;;5115658;27;20043;-86
2023/01/19 11:23:02;;;;;;;6.95;1.35;;;5.70;99.90;;;;;;5134734;27;20070;-87
2023/01/19 11:25:31;;;;;;;5.13;1.20;;;5.80;99.90;;;;;;5115863;27;20043;-85
2023/01/19 11:27:57;;;;;;;8.75;1.27;;;5.80;99.90;;;;;;5106355;28;20136;-86
2023/01/19 11:30:25;;;;;;;14.48;3.47;;;5.90;99.90;;;;;;5094973;28;20085;-86
2023/01/19 11:32:51;;;;;;;8.88;2.25;;;5.90;99.90;;;;;;5128895;27;20039;-86
2023/01/19 11:35:36;;;;;;;11.98;2.35;;;5.90;99.90;;;;;;5113204;28;20049;-86
2023/01/19 11:38:14;;;;;;;7.72;1.30;;;5.90;99.90;;;;;;5129684;27;20036;-87
2023/01/19 11:40:45;;;;;;;8.25;1.13;;;5.90;99.90;;;;;;5129669;27;20043;-87
2023/01/19 11:43:12;;;;;;;10.82;1.25;;;5.90;99.90;;;;;;5113455;27;20044;-86
2023/01/19 11:45:38;;;;;;;4.82;1.10;;;6.00;99.90;;;;;;5113486;28;20040;-87
2023/01/19 11:48:06;;;;;;;12.25;2.50;;;6.00;99.90;;;;;;5111866;28;20636;-86
2023/01/19 11:50:41;;;;;;;3.78;0.80;;;6.10;99.90;;;;;;5094657;28;20436;-90
2023/01/19 11:53:16;;;;;;;5.93;1.10;;;6.10;99.90;;;;;;5095038;28;20050;-86
2023/01/19 11:56:12;;;;;;;10.70;2.10;;;6.20;99.90;;;;;;5095026;28;20138;-87
2023/01/19 11:58:40;;;;;;;3.83;0.90;;;6.10;99.90;;;;;;5114900;27;20180;-86
2023/01/19 12:01:20;;;;;;;9.90;1.17;;;6.20;99.90;;;;;;5133818;27;20084;-87
2023/01/19 12:04:10;;;;;;;9.05;1.40;;;6.30;99.90;;;;;;5117925;27;20039;-86
2023/01/19 12:06:43;;;;;;;10.70;1.95;;;6.20;99.90;;;;;;5117968;27;20171;-86
2023/01/19 12:09:12;;;;;;;4.75;1.17;;;6.20;99.90;;;;;;5135098;27;20403;-86
2023/01/19 12:11:44;;;;;;;4.78;1.13;;;6.30;99.90;;;;;;5118401;27;20067;-87
2023/01/19 12:14:22;;;;;;;5.20;1.40;;;6.30;99.90;;;;;;5117544;27;20046;-84
2023/01/19 12:16:51;;;;;;;10.27;1.48;;;6.40;99.90;;;;;;5135734;27;20046;-85
2023/01/19 12:19:23;;;;;;;6.82;2.05;;;6.30;99.90;;;;;;5114585;27;20425;-86
2023/01/19 12:21:51;;;;;;;9.65;1.20;;;6.30;99.90;;;;;;5114156;27;20112;-87
2023/01/19 12:24:38;;;;;;;8.82;1.58;;;6.30;99.90;;;;;;5114030;27;20059;-85
2023/01/19 12:27:24;;;;;;;8.52;1.77;;;6.20;99.90;;;;;;5132511;27;20055;-86
2023/01/19 12:29:53;;;;;;;6.65;1.08;;;6.10;99.90;;;;;;5114218;27;20051;-85
2023/01/19 12:32:33;;;;;;;3.00;0.73;;;5.90;99.90;;;;;;5114384;27;20369;-86
2023/01/19 12:34:59;;;;;;;9.73;1.85;;;5.80;99.90;;;;;;5114125;27;20114;-86
2023/01/19 12:37:34;;;;;;;8.65;1.95;;;5.70;99.90;;;;;;5131371;27;20134;-87
2023/01/19 12:40:26;;;;;;;4.63;1.00;;;5.70;99.90;;;;;;5114136;27;20070;-86
2023/01/19 12:43:02;;;;;;;4.28;1.02;;;5.60;99.90;;;;;;5131603;27;20039;-86
2023/01/19 12:45:33;;;;;;;5.90;1.02;;;5.60;99.90;;;;;;5147792;27;20047;-86
2023/01/19 12:48:01;;;;;;;5.35;0.93;;;5.50;99.90;;;;;;5097035;27;20072;-86
2023/01/19 12:50:34;;;;;;;5.95;1.10;;;5.40;99.90;;;;;;5114015;27;20072;-86
2023/01/19 12:53:02;;;;;;;5.72;1.13;;;5.40;99.90;;;;;;5113958;27;20043;-85
2023/01/19 12:55:31;;;;;;;5.43;1.10;;;5.40;99.90;;;;;;5112209;27;20039;-87
2023/01/19 12:58:16;;;;;;;5.13;0.90;;;5.40;99.90;;;;;;5093551;28;20036;-87
2023/01/19 13:00:46;;;;;;;4.25;0.80;;;5.30;99.90;;;;;;5110654;28;20043;-86
2023/01/19 13:03:18;;;;;;;3.88;0.90;;;5.30;99.90;;;;;;5127841;27;20123;-86
2023/01/19 13:05:48;;;;;;;3.42;1.00;;;5.30;99.90;;;;;;5112676;28;20058;-86
2023/01/19 13:08:16;;;;;;;3.40;0.82;;;5.30;99.90;;;;;;5111575;28;20502;-85
2023/01/19 13:11:09;;;;;;;5.43;1.38;;;5.40;99.90;;;;;;5113385;27;20039;-87